Time;durP1;ratioP1;P1;durP2;ratioP2;P2;SDS_P1;SDS_P2;PMS_P1;PMS_P2;Temp;Humidity;BMP_temperature;BMP_pressure;BME280_temperature;BME280_humidity;BME280_pressure;Samples;Min_cycle;Max_cycle;Signal;HPM_P1;HPM_P2
2021/01/07 00:01:58;;;;;;;0.30;0.30;;;2.80;99.90;;;;;;5050920;28;20193;-74
2021/01/07 00:04:24;;;;;;;0.30;0.30;;;2.80;99.90;;;;;;5052775;28;20672;-74
2021/01/07 00:06:50;;;;;;;0.83;0.83;;;2.80;99.90;;;;;;5052564;28;20268;-75
2021/01/07 00:09:15;;;;;;;0.30;0.30;;;2.90;99.90;;;;;;5052855;28;20593;-74
2021/01/07 00:11:42;;;;;;;0.30;0.30;;;2.80;99.90;;;;;;5050865;28;20704;-73
2021/01/07 00:14:08;;;;;;;0.30;0.30;;;2.90;99.90;;;;;;5052484;28;20463;-74
2021/01/07 00:16:35;;;;;;;0.57;0.57;;;2.80;99.90;;;;;;5052192;28;20231;-74
2021/01/07 00:19:01;;;;;;;1.35;1.35;;;2.90;99.90;;;;;;5052789;28;20400;-73
2021/01/07 00:21:27;;;;;;;0.57;0.57;;;2.80;99.90;;;;;;5039582;28;20198;-73
2021/01/07 00:23:52;;;;;;;0.30;0.30;;;2.80;99.90;;;;;;5033614;28;20515;-74
2021/01/07 00:26:18;;;;;;;0.30;0.30;;;2.80;99.90;;;;;;5042357;28;20190;-73
2021/01/07 00:28:44;;;;;;;0.30;0.30;;;2.80;99.90;;;;;;5051232;28;20196;-74
2021/01/07 00:31:10;;;;;;;0.30;0.30;;;2.80;99.90;;;;;;5051874;28;20205;-72
2021/01/07 00:33:36;;;;;;;0.32;0.32;;;2.80;99.90;;;;;;5052527;28;20212;-73
2021/01/07 00:36:02;;;;;;;0.30;0.30;;;2.80;99.90;;;;;;5052383;28;20174;-74
2021/01/07 00:38:27;;;;;;;2.13;2.00;;;2.80;99.90;;;;;;5054553;28;20173;-74
2021/01/07 00:40:53;;;;;;;0.40;0.40;;;2.80;99.90;;;;;;5055309;28;20170;-75
2021/01/07 00:43:19;;;;;;;0.40;0.40;;;2.80;99.90;;;;;;5056425;28;20177;-74
2021/01/07 00:45:44;;;;;;;0.30;0.30;;;2.80;99.90;;;;;;5042952;28;20181;-74
2021/01/07 00:48:10;;;;;;;0.93;0.83;;;2.80;99.90;;;;;;5054640;28;20182;-73
2021/01/07 00:50:36;;;;;;;0.30;0.30;;;2.80;99.90;;;;;;5040106;28;20177;-73
2021/01/07 00:53:01;;;;;;;0.30;0.30;;;2.80;99.90;;;;;;5055690;28;20232;-74
2021/01/07 00:55:27;;;;;;;0.50;0.50;;;2.80;99.90;;;;;;5055930;28;20173;-72
2021/01/07 00:57:56;;;;;;;0.70;0.70;;;2.70;99.90;;;;;;5054465;28;20250;-74
2021/01/07 01:00:23;;;;;;;0.30;0.30;;;2.80;99.90;;;;;;5055490;28;20485;-72
2021/01/07 01:02:49;;;;;;;0.30;0.20;;;2.70;99.90;;;;;;5056089;28;20243;-73
2021/01/07 01:05:15;;;;;;;0.30;0.30;;;2.70;99.90;;;;;;5054634;28;20258;-74
2021/01/07 01:07:41;;;;;;;0.30;0.30;;;2.80;99.90;;;;;;5056931;28;20177;-74
2021/01/07 01:10:09;;;;;;;1.00;1.00;;;2.80;99.90;;;;;;5056278;28;20242;-74
2021/01/07 01:12:35;;;;;;;0.30;0.30;;;2.70;99.90;;;;;;5056570;28;20458;-73
2021/01/07 01:15:05;;;;;;;0.30;0.30;;;2.70;99.90;;;;;;5045372;28;20257;-73
2021/01/07 01:17:35;;;;;;;0.30;0.30;;;2.80;99.90;;;;;;5035589;28;20177;-72
2021/01/07 01:20:01;;;;;;;0.30;0.30;;;2.80;99.90;;;;;;5035188;28;20178;-73
2021/01/07 01:22:33;;;;;;;0.30;0.30;;;2.70;99.90;;;;;;5036412;28;20193;-73
2021/01/07 01:25:00;;;;;;;0.30;0.20;;;2.80;99.90;;;;;;5050418;28;20169;-73
2021/01/07 01:27:27;;;;;;;0.30;0.30;;;2.80;99.90;;;;;;5056175;28;20165;-73
2021/01/07 01:29:52;;;;;;;0.30;0.30;;;2.80;99.90;;;;;;5053559;28;20227;-74
2021/01/07 01:32:18;;;;;;;0.27;0.27;;;2.80;99.90;;;;;;5054730;28;20189;-74
2021/01/07 01:34:44;;;;;;;6.80;3.60;;;2.80;99.90;;;;;;5054443;28;20178;-74
2021/01/07 01:37:10;;;;;;;0.30;0.30;;;2.80;99.90;;;;;;5054740;28;20499;-73
2021/01/07 01:39:35;;;;;;;0.30;0.30;;;2.70;99.90;;;;;;5055085;28;20300;-74
2021/01/07 01:42:01;;;;;;;0.30;0.30;;;2.70;99.90;;;;;;5048251;28;20662;-73
2021/01/07 01:44:27;;;;;;;0.30;0.30;;;2.70;99.90;;;;;;5033739;28;20260;-74
2021/01/07 01:46:52;;;;;;;0.30;0.30;;;2.80;99.90;;;;;;5042889;28;20192;-74
2021/01/07 01:49:20;;;;;;;0.37;0.37;;;2.80;99.90;;;;;;5053994;28;20556;-74
2021/01/07 01:51:48;;;;;;;0.30;0.30;;;2.80;99.90;;;;;;5054224;28;20209;-73
2021/01/07 01:54:14;;;;;;;0.30;0.30;;;2.70;99.90;;;;;;5054021;28;20312;-74
2021/01/07 01:56:40;;;;;;;0.30;0.30;;;2.70;99.90;;;;;;5054246;28;20201;-74
2021/01/07 01:59:06;;;;;;;0.30;0.30;;;2.70;99.90;;;;;;5054397;28;20499;-72
2021/01/07 02:01:31;;;;;;;0.43;0.43;;;2.70;99.90;;;;;;5053995;28;20292;-74
2021/01/07 02:03:57;;;;;;;0.50;0.50;;;2.80;99.90;;;;;;5054503;28;20189;-76
2021/01/07 02:06:27;;;;;;;0.30;0.30;;;2.80;99.90;;;;;;5052896;28;20711;-72
2021/01/07 02:08:56;;;;;;;0.40;0.40;;;2.80;99.90;;;;;;5051984;28;20193;-74
2021/01/07 02:11:22;;;;;;;0.30;0.30;;;2.80;99.90;;;;;;5053809;28;20719;-74
2021/01/07 02:13:48;;;;;;;0.40;0.40;;;2.80;99.90;;;;;;5051292;28;20197;-73
2021/01/07 02:16:21;;;;;;;0.30;0.30;;;2.80;99.90;;;;;;5054461;28;20180;-73
2021/01/07 02:18:48;;;;;;;0.30;0.30;;;2.80;99.90;;;;;;5041732;28;20219;-73
2021/01/07 02:21:13;;;;;;;1.10;1.10;;;2.80;99.90;;;;;;5052475;28;20189;-74
2021/01/07 02:23:53;;;;;;;0.30;0.30;;;2.80;99.90;;;;;;5053255;28;20190;-72
2021/01/07 02:26:20;;;;;;;0.70;0.70;;;2.80;99.90;;;;;;5053762;28;20633;-73
2021/01/07 02:28:46;;;;;;;0.30;0.30;;;2.80;99.90;;;;;;5036252;28;20697;-72
2021/01/07 02:31:12;;;;;;;0.30;0.30;;;2.80;99.90;;;;;;5053809;28;20273;-73
2021/01/07 02:33:38;;;;;;;0.28;0.20;;;2.80;99.90;;;;;;5038480;28;20288;-73
2021/01/07 02:36:05;;;;;;;0.20;0.20;;;2.80;99.90;;;;;;5034572;28;20690;-74
2021/01/07 02:38:30;;;;;;;0.30;0.30;;;2.80;99.90;;;;;;5049556;28;20178;-72
2021/01/07 02:40:56;;;;;;;0.30;0.30;;;2.80;99.90;;;;;;5044886;28;20185;-72
2021/01/07 02:43:22;;;;;;;0.30;0.30;;;2.80;99.90;;;;;;5047952;28;20185;-72
2021/01/07 02:45:47;;;;;;;1.17;1.17;;;2.80;99.90;;;;;;5053843;28;20534;-74
2021/01/07 02:48:13;;;;;;;0.30;0.30;;;2.80;99.90;;;;;;5053462;28;20181;-74
2021/01/07 02:50:39;;;;;;;1.73;1.63;;;2.90;99.90;;;;;;5053160;28;20184;-74
2021/01/07 02:53:04;;;;;;;0.30;0.30;;;2.80;99.90;;;;;;5051957;28;20201;-73
2021/01/07 02:55:30;;;;;;;0.30;0.30;;;2.80;99.90;;;;;;5046704;28;20206;-74
2021/01/07 02:57:56;;;;;;;0.30;0.30;;;2.80;99.90;;;;;;5042340;28;20266;-74
2021/01/07 03:00:22;;;;;;;0.30;0.30;;;2.80;99.90;;;;;;5053021;28;20525;-74
2021/01/07 03:02:47;;;;;;;0.30;0.30;;;2.80;99.90;;;;;;5053215;28;20189;-73
2021/01/07 03:05:13;;;;;;;0.30;0.30;;;2.80;99.90;;;;;;5035303;28;20280;-73
2021/01/07 03:07:39;;;;;;;0.30;0.30;;;2.80;99.90;;;;;;5049605;28;20184;-73
2021/01/07 03:10:08;;;;;;;0.30;0.30;;;2.80;99.90;;;;;;5053218;28;20170;-73
2021/01/07 03:12:33;;;;;;;0.52;0.52;;;2.80;99.90;;;;;;5050672;28;20200;-73
2021/01/07 03:14:59;;;;;;;0.30;0.30;;;2.80;99.90;;;;;;5053200;28;20170;-74
2021/01/07 03:17:24;;;;;;;0.30;0.30;;;2.80;99.90;;;;;;5053118;28;20244;-72
2021/01/07 03:19:50;;;;;;;0.30;0.30;;;2.80;99.90;;;;;;5053026;28;20165;-73
2021/01/07 03:22:16;;;;;;;0.30;0.30;;;2.80;99.90;;;;;;5047893;28;20197;-73
2021/01/07 03:24:41;;;;;;;1.43;1.43;;;2.90;99.90;;;;;;5053406;28;20638;-72
2021/01/07 03:27:07;;;;;;;0.30;0.30;;;2.90;99.90;;;;;;5051779;28;20315;-73
2021/01/07 03:29:33;;;;;;;0.30;0.30;;;3.00;99.90;;;;;;5051710;28;20193;-73
2021/01/07 03:31:58;;;;;;;0.30;0.30;;;3.00;99.90;;;;;;5034107;28;20274;-73
2021/01/07 03:34:24;;;;;;;0.30;0.30;;;2.90;99.90;;;;;;5053001;28;20213;-74
2021/01/07 03:36:50;;;;;;;0.30;0.27;;;2.90;99.90;;;;;;5052922;28;20634;-74
2021/01/07 03:39:16;;;;;;;0.40;0.40;;;2.80;99.90;;;;;;5051095;28;20182;-73
2021/01/07 03:41:42;;;;;;;0.40;0.40;;;2.80;99.90;;;;;;5052272;28;20273;-74
2021/01/07 03:44:08;;;;;;;0.30;0.30;;;2.70;99.90;;;;;;5053276;28;20269;-74
2021/01/07 03:46:33;;;;;;;0.25;0.25;;;2.70;99.90;;;;;;5051540;28;20430;-76
2021/01/07 03:48:59;;;;;;;0.40;0.40;;;2.70;99.90;;;;;;5052899;28;20172;-73
2021/01/07 03:51:25;;;;;;;0.20;0.20;;;2.60;99.90;;;;;;5050926;28;20233;-73
2021/01/07 03:53:50;;;;;;;0.30;0.30;;;2.60;99.90;;;;;;5051919;28;20204;-73
2021/01/07 03:56:16;;;;;;;0.30;0.30;;;2.60;99.90;;;;;;5052550;28;20420;-73
2021/01/07 03:58:42;;;;;;;0.40;0.40;;;2.70;99.90;;;;;;5052666;28;20183;-73
2021/01/07 04:01:08;;;;;;;0.30;0.30;;;2.60;99.90;;;;;;5052214;28;20194;-73
2021/01/07 04:03:34;;;;;;;5.97;1.38;;;2.70;99.90;;;;;;5052513;28;20423;-73
2021/01/07 04:05:59;;;;;;;0.30;0.30;;;2.80;99.90;;;;;;5052710;28;20181;-73
2021/01/07 04:08:25;;;;;;;0.70;0.70;;;2.80;99.90;;;;;;5047272;28;20601;-74
2021/01/07 04:10:51;;;;;;;0.30;0.30;;;2.80;99.90;;;;;;5047488;28;20697;-73
2021/01/07 04:13:16;;;;;;;0.30;0.30;;;2.70;99.90;;;;;;5035680;28;20198;-72
2021/01/07 04:15:42;;;;;;;0.30;0.30;;;2.70;99.90;;;;;;5039103;28;20177;-74
2021/01/07 04:18:08;;;;;;;0.23;0.23;;;2.80;99.90;;;;;;5055363;28;20400;-74
2021/01/07 04:20:33;;;;;;;0.30;0.30;;;2.70;99.90;;;;;;5055978;28;20634;-72
2021/01/07 04:22:59;;;;;;;0.30;0.30;;;2.70;99.90;;;;;;5055551;28;20207;-74
2021/01/07 04:25:25;;;;;;;0.30;0.20;;;2.60;99.90;;;;;;5054550;28;20247;-74
2021/01/07 04:27:50;;;;;;;0.30;0.30;;;2.60;99.90;;;;;;5055258;28;20181;-72
2021/01/07 04:30:16;;;;;;;0.30;0.30;;;2.60;99.90;;;;;;5056149;28;20180;-73
2021/01/07 04:32:42;;;;;;;0.30;0.30;;;2.60;99.90;;;;;;5055989;28;20205;-71
2021/01/07 04:35:08;;;;;;;0.30;0.30;;;2.60;99.90;;;;;;5051269;28;20181;-74
2021/01/07 04:37:34;;;;;;;0.30;0.30;;;2.50;99.90;;;;;;5052743;28;20204;-73
2021/01/07 04:40:00;;;;;;;0.43;0.43;;;2.50;99.90;;;;;;5043361;28;20601;-72
2021/01/07 04:42:26;;;;;;;1.90;1.30;;;2.50;99.90;;;;;;5050312;28;20450;-73
2021/01/07 04:44:52;;;;;;;0.30;0.30;;;2.50;99.90;;;;;;5055391;28;20459;-74
2021/01/07 04:47:17;;;;;;;0.30;0.30;;;2.50;99.90;;;;;;5055775;28;20481;-74
2021/01/07 04:49:43;;;;;;;0.30;0.30;;;2.50;99.90;;;;;;5054668;28;20572;-72
2021/01/07 04:52:09;;;;;;;0.63;0.63;;;2.40;99.90;;;;;;5055081;28;20193;-74
2021/01/07 04:54:34;;;;;;;0.30;0.30;;;2.40;99.90;;;;;;5055722;28;20538;-73
2021/01/07 04:57:01;;;;;;;0.30;0.30;;;2.40;99.90;;;;;;5054235;28;20205;-73
2021/01/07 04:59:27;;;;;;;1.33;1.33;;;2.40;99.90;;;;;;5055046;28;20177;-73
2021/01/07 05:01:53;;;;;;;0.30;0.30;;;2.40;99.90;;;;;;5053725;28;20220;-73
2021/01/07 05:04:19;;;;;;;0.30;0.20;;;2.40;99.90;;;;;;5055490;28;20196;-72
2021/01/07 05:06:46;;;;;;;0.30;0.30;;;2.50;99.90;;;;;;5054604;28;20182;-74
2021/01/07 05:09:11;;;;;;;0.50;0.50;;;2.50;99.90;;;;;;5054195;28;20187;-73
2021/01/07 05:11:37;;;;;;;0.20;0.20;;;2.50;99.90;;;;;;5054829;28;20724;-74
2021/01/07 05:14:05;;;;;;;0.20;0.20;;;2.50;99.90;;;;;;5055435;28;20241;-73
2021/01/07 05:16:31;;;;;;;0.30;0.30;;;2.50;99.90;;;;;;5055056;28;20198;-74
2021/01/07 05:18:57;;;;;;;0.30;0.30;;;2.40;99.90;;;;;;5055392;28;20637;-73
2021/01/07 05:21:24;;;;;;;0.30;0.30;;;2.50;99.90;;;;;;5054125;28;20478;-75
2021/01/07 05:23:51;;;;;;;0.30;0.30;;;2.50;99.90;;;;;;5050827;28;20228;-74
2021/01/07 05:26:18;;;;;;;0.30;0.30;;;2.50;99.90;;;;;;5037737;28;20258;-73
2021/01/07 05:28:55;;;;;;;0.30;0.30;;;2.40;99.90;;;;;;5055252;28;20239;-74
2021/01/07 05:31:23;;;;;;;0.50;0.50;;;2.50;99.90;;;;;;5053856;28;20768;-74
2021/01/07 05:33:49;;;;;;;0.30;0.30;;;2.50;99.90;;;;;;5055250;28;20200;-73
2021/01/07 05:36:23;;;;;;;0.30;0.30;;;2.50;99.90;;;;;;5054807;28;20181;-73
2021/01/07 05:38:50;;;;;;;0.30;0.30;;;2.50;99.90;;;;;;5054803;28;20172;-74
2021/01/07 05:41:17;;;;;;;0.30;0.30;;;2.60;99.90;;;;;;5046610;28;20291;-74
2021/01/07 05:43:43;;;;;;;0.30;0.30;;;2.50;99.90;;;;;;5035246;28;20193;-74
2021/01/07 05:46:11;;;;;;;0.30;0.30;;;2.50;99.90;;;;;;5046762;28;20291;-73
2021/01/07 05:48:36;;;;;;;0.55;0.55;;;2.50;99.90;;;;;;5053911;28;20260;-75
2021/01/07 05:51:04;;;;;;;0.30;0.30;;;2.60;99.90;;;;;;5054234;28;20228;-75
2021/01/07 05:53:33;;;;;;;0.60;0.60;;;2.60;99.90;;;;;;5046833;28;20198;-74
2021/01/07 05:55:59;;;;;;;0.57;0.57;;;2.50;99.90;;;;;;5043437;28;20201;-74
2021/01/07 05:58:25;;;;;;;0.30;0.30;;;2.60;99.90;;;;;;5054746;28;20204;-73
2021/01/07 06:00:54;;;;;;;0.30;0.30;;;2.60;99.90;;;;;;5047438;28;20476;-72
2021/01/07 06:03:22;;;;;;;0.40;0.40;;;2.60;99.90;;;;;;5035916;28;20194;-74
2021/01/07 06:05:50;;;;;;;0.30;0.30;;;2.50;99.90;;;;;;5053462;28;20316;-72
2021/01/07 06:08:17;;;;;;;0.30;0.30;;;2.60;99.90;;;;;;5054474;28;20170;-72
2021/01/07 06:10:45;;;;;;;0.30;0.30;;;2.60;99.90;;;;;;5053789;28;20170;-72
2021/01/07 06:13:11;;;;;;;0.30;0.30;;;2.60;99.90;;;;;;5053560;28;20209;-73
2021/01/07 06:15:37;;;;;;;0.53;0.53;;;2.50;99.90;;;;;;5051433;28;20642;-73
2021/01/07 06:18:05;;;;;;;0.30;0.30;;;2.50;99.90;;;;;;5052716;28;20165;-73
2021/01/07 06:20:35;;;;;;;0.30;0.30;;;2.50;99.90;;;;;;5051999;28;20585;-73
2021/01/07 06:23:01;;;;;;;0.40;0.40;;;2.50;99.90;;;;;;5051337;28;20733;-74
2021/01/07 06:25:27;;;;;;;0.30;0.30;;;2.60;99.90;;;;;;5052445;28;20273;-75
2021/01/07 06:27:53;;;;;;;0.30;0.30;;;2.60;99.90;;;;;;5053124;28;20196;-73
2021/01/07 06:30:19;;;;;;;0.40;0.40;;;2.50;99.90;;;;;;5051562;28;20424;-74
2021/01/07 06:32:47;;;;;;;0.30;0.30;;;2.50;99.90;;;;;;5052409;28;20212;-73
2021/01/07 06:35:14;;;;;;;0.98;0.95;;;2.50;99.90;;;;;;5052266;28;20176;-73
2021/01/07 06:37:46;;;;;;;0.32;0.32;;;2.50;99.90;;;;;;5054043;28;20537;-74
2021/01/07 06:40:13;;;;;;;0.30;0.30;;;2.50;99.90;;;;;;5053330;28;20572;-74
2021/01/07 06:42:44;;;;;;;0.30;0.30;;;2.50;99.90;;;;;;5054105;28;20189;-74
2021/01/07 06:45:11;;;;;;;0.20;0.20;;;2.60;99.90;;;;;;5051421;28;20180;-74
2021/01/07 06:47:42;;;;;;;0.30;0.30;;;2.70;99.90;;;;;;5054110;28;20173;-73
2021/01/07 06:50:09;;;;;;;0.30;0.30;;;2.70;99.90;;;;;;5053047;28;20178;-73
2021/01/07 06:52:40;;;;;;;0.50;0.50;;;2.70;99.90;;;;;;5045390;28;20259;-73
2021/01/07 06:55:13;;;;;;;0.30;0.30;;;2.70;99.90;;;;;;5041855;28;20604;-72
2021/01/07 06:57:44;;;;;;;0.30;0.30;;;2.70;99.90;;;;;;5053801;28;20169;-73
2021/01/07 07:00:15;;;;;;;0.30;0.20;;;2.60;99.90;;;;;;5051424;28;20197;-73
2021/01/07 07:03:00;;;;;;;0.60;0.60;;;2.50;99.90;;;;;;5049523;28;20217;-76
2021/01/07 07:05:33;;;;;;;0.30;0.30;;;2.50;99.90;;;;;;5049784;28;20182;-74
2021/01/07 07:08:01;;;;;;;0.30;0.30;;;2.50;99.90;;;;;;5053489;28;20597;-74
2021/01/07 07:10:27;;;;;;;0.30;0.30;;;2.50;99.90;;;;;;5053398;28;20264;-75
2021/01/07 07:12:53;;;;;;;0.30;0.30;;;2.40;99.90;;;;;;5052403;28;20292;-72
2021/01/07 07:15:24;;;;;;;0.30;0.30;;;2.40;99.90;;;;;;5049688;28;20170;-73
2021/01/07 07:17:55;;;;;;;0.30;0.30;;;2.40;99.90;;;;;;5054990;28;20423;-73
2021/01/07 07:20:26;;;;;;;0.30;0.30;;;2.40;99.90;;;;;;5052374;28;20197;-72
2021/01/07 07:22:53;;;;;;;0.30;0.30;;;2.50;99.90;;;;;;5053019;28;20691;-74
2021/01/07 07:25:24;;;;;;;0.60;0.60;;;2.40;99.90;;;;;;5052823;28;20213;-72
2021/01/07 07:27:52;;;;;;;0.60;0.60;;;2.40;99.90;;;;;;5042422;28;20272;-73
2021/01/07 07:30:28;;;;;;;0.60;0.60;;;2.40;99.90;;;;;;5045783;28;20560;-74
2021/01/07 07:32:55;;;;;;;0.30;0.30;;;2.50;99.90;;;;;;5053248;28;20557;-72
2021/01/07 07:35:25;;;;;;;0.30;0.30;;;2.40;99.90;;;;;;5050913;28;20173;-72
2021/01/07 07:37:52;;;;;;;0.30;0.30;;;2.40;99.90;;;;;;5051514;28;20270;-74
2021/01/07 07:40:40;;;;;;;0.95;0.93;;;2.40;99.90;;;;;;5052501;28;20580;-74
2021/01/07 07:43:07;;;;;;;0.30;0.20;;;2.50;99.90;;;;;;5045208;28;20561;-72
2021/01/07 07:45:36;;;;;;;0.30;0.30;;;2.50;99.90;;;;;;5052759;28;20173;-73
2021/01/07 07:48:02;;;;;;;0.30;0.30;;;2.50;99.90;;;;;;5054904;28;20173;-74
2021/01/07 07:50:31;;;;;;;0.32;0.32;;;2.50;99.90;;;;;;5039184;28;20170;-76
2021/01/07 07:53:11;;;;;;;0.45;0.45;;;2.60;99.90;;;;;;5041044;28;20200;-76
2021/01/07 07:55:40;;;;;;;0.30;0.30;;;2.60;99.90;;;;;;5059409;28;20169;-78
2021/01/07 07:58:16;;;;;;;0.30;0.30;;;2.60;99.90;;;;;;5057602;28;20183;-75
2021/01/07 08:00:58;;;;;;;0.30;0.30;;;2.60;99.90;;;;;;5056609;28;20241;-75
2021/01/07 08:03:30;;;;;;;0.30;0.30;;;2.60;99.90;;;;;;5034567;28;20291;-76
2021/01/07 08:06:00;;;;;;;0.30;0.30;;;2.60;99.90;;;;;;5033012;28;20195;-74
2021/01/07 08:08:26;;;;;;;0.38;0.38;;;2.60;99.90;;;;;;5036159;28;20297;-76
2021/01/07 08:10:53;;;;;;;0.30;0.30;;;2.70;99.90;;;;;;5035213;28;20166;-80
2021/01/07 08:13:20;;;;;;;0.60;0.60;;;2.70;99.90;;;;;;5015763;28;20569;-77
2021/01/07 08:15:51;;;;;;;0.40;0.40;;;2.80;99.90;;;;;;5034783;28;20314;-75
2021/01/07 08:18:19;;;;;;;0.38;0.38;;;2.90;99.90;;;;;;5015014;28;20195;-75
2021/01/07 08:20:45;;;;;;;0.30;0.30;;;2.80;99.90;;;;;;5014235;28;20167;-77
2021/01/07 08:23:13;;;;;;;0.30;0.30;;;2.80;99.90;;;;;;5033809;28;20589;-75
2021/01/07 08:25:39;;;;;;;0.32;0.32;;;2.80;99.90;;;;;;5032531;28;20557;-73
2021/01/07 08:28:21;;;;;;;0.30;0.30;;;2.90;99.90;;;;;;5014576;28;20812;-72
2021/01/07 08:30:53;;;;;;;0.30;0.30;;;2.90;99.90;;;;;;5023656;28;20174;-73
2021/01/07 08:33:22;;;;;;;0.82;0.82;;;2.90;99.90;;;;;;5035602;28;20198;-77
2021/01/07 08:35:48;;;;;;;0.30;0.30;;;3.00;99.90;;;;;;5051496;28;20235;-72
2021/01/07 08:38:31;;;;;;;0.63;0.63;;;3.00;99.90;;;;;;5056779;28;20166;-71
2021/01/07 08:41:12;;;;;;;1.85;1.23;;;3.00;99.90;;;;;;5046966;28;20534;-70
2021/01/07 08:43:38;;;;;;;0.30;0.30;;;3.10;99.90;;;;;;5056199;28;20197;-74
2021/01/07 08:46:16;;;;;;;0.30;0.30;;;3.10;99.90;;;;;;5055058;28;20695;-75
2021/01/07 08:48:42;;;;;;;0.52;0.52;;;3.20;99.90;;;;;;5053526;28;20649;-74
2021/01/07 08:51:21;;;;;;;0.30;0.30;;;3.20;99.90;;;;;;5046945;28;20287;-73
2021/01/07 08:53:54;;;;;;;0.50;0.50;;;3.30;99.90;;;;;;5056099;28;20547;-71
2021/01/07 08:56:36;;;;;;;0.40;0.40;;;3.30;99.90;;;;;;5055348;28;20169;-71
2021/01/07 08:59:31;;;;;;;0.30;0.30;;;3.30;99.90;;;;;;5039100;28;20239;-71
2021/01/07 09:02:21;;;;;;;0.70;0.70;;;3.40;99.90;;;;;;5035525;28;20284;-74
2021/01/07 09:04:51;;;;;;;0.40;0.40;;;3.60;99.90;;;;;;5054200;28;20196;-74
2021/01/07 09:07:16;;;;;;;0.30;0.30;;;3.60;99.90;;;;;;5055172;28;20185;-72
2021/01/07 09:09:53;;;;;;;0.30;0.30;;;3.60;99.90;;;;;;5053980;28;20716;-72
2021/01/07 09:12:23;;;;;;;0.30;0.30;;;3.70;99.90;;;;;;5055288;28;20232;-75
2021/01/07 09:15:11;;;;;;;0.30;0.30;;;3.70;99.90;;;;;;5055280;28;20619;-73
2021/01/07 09:17:44;;;;;;;0.30;0.30;;;3.80;99.90;;;;;;5035800;28;20633;-73
2021/01/07 09:20:15;;;;;;;0.98;0.98;;;3.80;99.90;;;;;;5040519;28;20173;-72
2021/01/07 09:22:42;;;;;;;0.30;0.30;;;3.90;99.90;;;;;;5053708;28;20595;-74
2021/01/07 09:25:17;;;;;;;0.30;0.30;;;4.10;99.90;;;;;;5044562;28;20169;-75
2021/01/07 09:27:43;;;;;;;0.30;0.30;;;4.00;99.90;;;;;;5053870;28;20170;-75
2021/01/07 09:30:09;;;;;;;0.30;0.30;;;4.10;99.90;;;;;;5050538;28;20227;-72
2021/01/07 09:32:35;;;;;;;0.30;0.28;;;4.10;99.90;;;;;;5041605;28;20448;-72
2021/01/07 09:35:00;;;;;;;0.30;0.30;;;4.10;99.90;;;;;;5049442;28;20174;-71
2021/01/07 09:37:26;;;;;;;0.40;0.40;;;4.10;99.90;;;;;;5054573;28;20193;-73
2021/01/07 09:39:54;;;;;;;0.30;0.30;;;4.10;99.90;;;;;;5052384;28;20174;-76
2021/01/07 09:42:21;;;;;;;0.30;0.30;;;4.20;99.90;;;;;;5053061;28;20193;-73
2021/01/07 09:44:48;;;;;;;0.30;0.30;;;4.10;99.90;;;;;;5052971;28;20177;-73
2021/01/07 09:47:15;;;;;;;0.30;0.30;;;4.10;99.90;;;;;;5051897;28;20177;-72
2021/01/07 09:49:41;;;;;;;0.30;0.30;;;4.20;99.90;;;;;;5042401;28;20176;-72
2021/01/07 09:52:06;;;;;;;0.30;0.30;;;4.20;99.90;;;;;;5054119;28;20201;-72
2021/01/07 09:54:33;;;;;;;1.47;1.37;;;4.20;99.90;;;;;;5043538;28;20193;-73
2021/01/07 09:57:00;;;;;;;0.70;0.70;;;4.20;99.90;;;;;;5054537;28;20534;-72
2021/01/07 09:59:28;;;;;;;0.63;0.63;;;4.30;99.90;;;;;;5054680;28;20174;-71
2021/01/07 10:01:59;;;;;;;0.30;0.30;;;4.30;99.90;;;;;;5041060;28;20565;-72
2021/01/07 10:04:25;;;;;;;0.30;0.30;;;4.30;99.90;;;;;;5035738;28;20186;-73
2021/01/07 10:06:51;;;;;;;0.40;0.40;;;4.40;99.90;;;;;;5051701;28;20227;-73
2021/01/07 10:09:17;;;;;;;0.35;0.35;;;4.50;99.90;;;;;;5060010;28;20176;-74
2021/01/07 10:11:43;;;;;;;0.30;0.30;;;4.60;99.90;;;;;;5058163;28;20673;-73
2021/01/07 10:14:09;;;;;;;0.30;0.20;;;4.60;99.90;;;;;;5052070;28;20258;-74
2021/01/07 10:16:35;;;;;;;1.13;1.13;;;4.60;99.90;;;;;;5054331;28;20455;-73
2021/01/07 10:19:01;;;;;;;0.53;0.53;;;4.60;99.90;;;;;;5052140;28;20788;-74
2021/01/07 10:21:30;;;;;;;0.38;0.38;;;4.60;99.90;;;;;;5051507;28;20193;-73
2021/01/07 10:23:57;;;;;;;0.30;0.30;;;4.60;99.90;;;;;;5037684;28;20256;-72
2021/01/07 10:26:22;;;;;;;2.67;2.47;;;4.60;99.90;;;;;;5036998;28;20533;-73
2021/01/07 10:28:50;;;;;;;0.60;0.60;;;4.60;99.90;;;;;;5053856;28;20177;-74
2021/01/07 10:31:17;;;;;;;0.30;0.30;;;4.60;99.90;;;;;;5054910;28;20269;-73
2021/01/07 10:33:44;;;;;;;0.95;0.95;;;4.60;99.90;;;;;;5054204;28;20193;-73
2021/01/07 10:36:10;;;;;;;0.30;0.30;;;4.60;99.90;;;;;;5054299;28;20653;-72
2021/01/07 10:38:38;;;;;;;0.30;0.30;;;4.60;99.90;;;;;;5052858;28;20542;-73
2021/01/07 10:41:06;;;;;;;0.80;0.80;;;4.60;99.90;;;;;;5052217;28;20177;-74
2021/01/07 10:43:33;;;;;;;0.30;0.25;;;4.60;99.90;;;;;;5053898;28;20600;-73
2021/01/07 10:45:59;;;;;;;0.30;0.30;;;4.70;99.90;;;;;;5053499;28;20580;-72
2021/01/07 10:48:26;;;;;;;1.77;1.58;;;4.70;99.90;;;;;;5056640;28;20231;-74
2021/01/07 10:50:53;;;;;;;0.40;0.40;;;4.80;99.90;;;;;;5052343;28;20642;-73
2021/01/07 10:53:27;;;;;;;0.70;0.70;;;4.80;99.90;;;;;;5051913;28;20202;-74
2021/01/07 10:56:02;;;;;;;0.30;0.30;;;4.90;99.90;;;;;;5053548;28;20164;-74
2021/01/07 10:58:36;;;;;;;0.30;0.30;;;5.00;99.90;;;;;;5053531;28;20243;-74
2021/01/07 11:01:13;;;;;;;0.30;0.30;;;5.10;99.90;;;;;;5041854;28;20185;-72
2021/01/07 11:03:59;;;;;;;0.30;0.30;;;5.10;99.90;;;;;;5033392;28;20654;-73
2021/01/07 11:06:31;;;;;;;0.40;0.40;;;5.20;99.90;;;;;;5033908;28;20178;-73
2021/01/07 11:09:04;;;;;;;0.30;0.30;;;5.20;99.90;;;;;;5033596;28;20227;-73
2021/01/07 11:11:42;;;;;;;0.30;0.30;;;5.30;99.90;;;;;;5031710;28;20190;-73
2021/01/07 11:14:13;;;;;;;0.40;0.40;;;5.30;99.90;;;;;;5033289;28;20289;-73
2021/01/07 11:17:11;;;;;;;0.30;0.30;;;5.40;99.90;;;;;;5034258;28;20170;-73
2021/01/07 11:19:40;;;;;;;0.30;0.30;;;5.50;99.90;;;;;;5028990;28;20183;-72
2021/01/07 11:22:12;;;;;;;0.40;0.40;;;5.60;99.90;;;;;;5032748;28;20189;-73
2021/01/07 11:24:42;;;;;;;0.30;0.20;;;5.60;99.90;;;;;;5033062;28;20630;-73
2021/01/07 11:27:11;;;;;;;0.30;0.30;;;5.60;99.90;;;;;;5033348;28;20178;-73
2021/01/07 11:29:38;;;;;;;0.30;0.20;;;5.70;99.90;;;;;;5035118;28;20170;-72
2021/01/07 11:32:04;;;;;;;0.30;0.20;;;5.70;99.90;;;;;;5052482;28;20201;-74
2021/01/07 11:34:32;;;;;;;0.30;0.20;;;5.60;99.90;;;;;;5051761;28;20207;-73
2021/01/07 11:37:04;;;;;;;0.30;0.30;;;5.60;99.90;;;;;;5053072;28;20523;-73
2021/01/07 11:39:58;;;;;;;0.30;0.30;;;5.60;99.90;;;;;;5052494;28;20179;-72
2021/01/07 11:42:35;;;;;;;0.30;0.30;;;5.60;99.90;;;;;;5052851;28;20189;-73
2021/01/07 11:45:19;;;;;;;0.32;0.32;;;5.70;99.90;;;;;;5052954;28;20207;-73
2021/01/07 11:47:47;;;;;;;0.98;0.98;;;5.70;99.90;;;;;;5051385;28;20268;-73
2021/01/07 11:50:15;;;;;;;0.47;0.43;;;5.70;99.90;;;;;;5051734;28;20231;-74
2021/01/07 11:52:44;;;;;;;0.30;0.30;;;5.90;99.90;;;;;;5052672;28;20531;-72
2021/01/07 11:55:12;;;;;;;0.50;0.50;;;5.90;99.90;;;;;;5051536;28;20173;-73
2021/01/07 11:57:40;;;;;;;0.30;0.20;;;5.90;99.90;;;;;;5052931;28;20185;-74
2021/01/07 12:00:08;;;;;;;0.30;0.30;;;5.90;99.90;;;;;;5052280;28;20211;-72
2021/01/07 12:02:35;;;;;;;0.30;0.30;;;5.90;99.90;;;;;;5042460;28;20325;-74
2021/01/07 12:05:06;;;;;;;0.30;0.20;;;5.90;99.90;;;;;;5041938;28;20325;-73
2021/01/07 12:08:02;;;;;;;0.45;0.45;;;5.80;99.90;;;;;;5031750;28;20698;-75
2021/01/07 12:10:33;;;;;;;0.40;0.40;;;5.70;99.90;;;;;;5031226;28;20553;-72
2021/01/07 12:13:15;;;;;;;0.40;0.40;;;5.70;99.90;;;;;;5052160;28;20204;-72
2021/01/07 12:15:44;;;;;;;1.13;0.75;;;5.70;99.90;;;;;;5052782;28;20166;-76
2021/01/07 12:18:12;;;;;;;0.30;0.30;;;5.70;99.90;;;;;;5033527;28;20181;-73
2021/01/07 12:20:39;;;;;;;0.30;0.20;;;5.70;99.90;;;;;;5032419;28;20202;-75
2021/01/07 12:23:08;;;;;;;0.30;0.28;;;5.70;99.90;;;;;;5050551;28;20296;-72
2021/01/07 12:25:34;;;;;;;0.30;0.30;;;5.60;99.90;;;;;;5032214;28;20669;-74
2021/01/07 12:28:00;;;;;;;0.55;0.55;;;5.60;99.90;;;;;;5050861;28;20209;-73
2021/01/07 12:30:27;;;;;;;0.32;0.32;;;5.60;99.90;;;;;;5052500;28;20170;-74
2021/01/07 12:33:22;;;;;;;0.30;0.30;;;5.60;99.90;;;;;;5038458;28;20198;-72
2021/01/07 12:36:05;;;;;;;0.30;0.20;;;5.50;99.90;;;;;;5036754;28;20170;-72
2021/01/07 12:38:57;;;;;;;0.30;0.30;;;5.40;99.90;;;;;;5055573;28;20653;-73
2021/01/07 12:41:26;;;;;;;0.30;0.30;;;5.40;99.90;;;;;;5056033;28;20225;-72
2021/01/07 12:43:55;;;;;;;1.00;1.00;;;5.30;99.90;;;;;;5055980;28;20181;-74
2021/01/07 12:46:25;;;;;;;0.85;0.85;;;5.20;99.90;;;;;;5055517;28;20262;-73
2021/01/07 12:48:52;;;;;;;0.30;0.30;;;5.20;99.90;;;;;;5056485;28;20668;-72
2021/01/07 12:51:17;;;;;;;0.30;0.20;;;5.30;99.90;;;;;;5055427;28;20288;-74
2021/01/07 12:53:43;;;;;;;0.30;0.20;;;5.30;99.90;;;;;;5053759;28;20626;-72
2021/01/07 12:56:17;;;;;;;0.30;0.30;;;5.20;99.90;;;;;;5056058;28;20252;-72
2021/01/07 12:58:47;;;;;;;0.30;0.30;;;5.20;99.90;;;;;;5036531;28;20411;-71
2021/01/07 13:01:26;;;;;;;0.50;0.50;;;5.20;99.90;;;;;;5037173;28;20229;-73
2021/01/07 13:04:00;;;;;;;0.68;0.68;;;5.20;99.90;;;;;;5020374;28;20190;-75
2021/01/07 13:06:44;;;;;;;0.30;0.20;;;5.30;99.90;;;;;;5043249;28;20178;-76